Time;durP1;ratioP1;P1;durP2;ratioP2;P2;SDS_P1;SDS_P2;PMS_P1;PMS_P2;Temp;Humidity;BMP_temperature;BMP_pressure;BME280_temperature;BME280_humidity;BME280_pressure;Samples;Min_cycle;Max_cycle;Signal;HPM_P1;HPM_P2
2023/06/10 00:01:41;;;;;;;10.02;5.40;;;;;;;;;;5024641;28;20458;-90
2023/06/10 00:04:07;;;;;;;8.75;5.10;;;;;;;;;;5055442;28;20055;-90
2023/06/10 00:06:39;;;;;;;7.03;4.90;;;;;;;;;;5051561;28;22072;-90
2023/06/10 00:09:05;;;;;;;9.75;4.82;;;;;;;;;;5041580;28;20044;-90
2023/06/10 00:11:32;;;;;;;8.40;5.20;;;;;;;;;;5047176;28;20035;-90
2023/06/10 00:13:58;;;;;;;9.15;4.93;;;;;;;;;;5017796;28;20047;-90
2023/06/10 00:16:25;;;;;;;7.05;5.13;;;;;;;;;;5023338;28;20044;-90
2023/06/10 00:18:51;;;;;;;10.50;5.38;;;;;;;;;;5034911;28;20127;-90
2023/06/10 00:21:17;;;;;;;8.38;5.05;;;;;;;;;;5056594;28;20040;-90
2023/06/10 00:23:43;;;;;;;8.73;5.05;;;;;;;;;;5036237;28;20036;-90
2023/06/10 00:26:09;;;;;;;8.52;5.10;;;;;;;;;;5037275;28;20036;-90
2023/06/10 00:28:35;;;;;;;7.10;4.45;;;;;;;;;;5069824;28;20119;-90
2023/06/10 00:31:02;;;;;;;8.45;5.20;;;;;;;;;;5032465;28;20066;-89
2023/06/10 00:33:28;;;;;;;7.50;5.22;;;;;;;;;;5042798;28;20040;-90
2023/06/10 00:35:54;;;;;;;6.28;4.22;;;;;;;;;;5042763;28;20044;-90
2023/06/10 00:38:20;;;;;;;8.07;5.05;;;;;;;;;;5074684;28;20036;-89
2023/06/10 00:40:46;;;;;;;8.55;5.57;;;;;;;;;;5031900;28;20052;-90
2023/06/10 00:43:12;;;;;;;7.47;5.18;;;;;;;;;;5037827;28;20054;-90
2023/06/10 00:45:39;;;;;;;8.98;5.20;;;;;;;;;;5027006;28;20040;-90
2023/06/10 00:48:05;;;;;;;8.63;5.50;;;;;;;;;;5068820;28;20071;-90
2023/06/10 00:50:31;;;;;;;8.98;5.35;;;;;;;;;;5036218;28;20062;-90
2023/06/10 00:52:57;;;;;;;6.82;5.25;;;;;;;;;;5024126;28;21634;-90
2023/06/10 00:55:24;;;;;;;9.18;4.47;;;;;;;;;;5068515;28;20151;-89
2023/06/10 00:57:51;;;;;;;9.45;5.07;;;;;;;;;;5051708;28;20036;-90
2023/06/10 01:00:17;;;;;;;8.75;4.60;;;;;;;;;;5039134;28;20387;-90
2023/06/10 01:02:43;;;;;;;8.05;5.25;;;;;;;;;;5032261;28;20071;-90
2023/06/10 01:05:09;;;;;;;7.60;4.78;;;;;;;;;;5053376;28;20636;-90
2023/06/10 01:07:53;;;;;;;9.45;5.28;;;;;;;;;;5041907;28;20055;-90
2023/06/10 01:10:30;;;;;;;8.75;5.25;;;;;;;;;;5020632;28;20189;-90
2023/06/10 01:12:59;;;;;;;9.57;5.22;;;;;;;;;;5042032;28;20044;-90
2023/06/10 01:15:25;;;;;;;9.23;5.22;;;;;;;;;;5048389;28;20067;-89
2023/06/10 01:17:57;;;;;;;7.05;5.10;;;;;;;;;;5061020;28;20036;-90
2023/06/10 01:20:26;;;;;;;7.75;5.05;;;;;;;;;;5056537;28;20040;-90
2023/06/10 01:22:54;;;;;;;8.23;5.32;;;;;;;;;;5052006;28;20088;-90
2023/06/10 01:25:27;;;;;;;10.77;5.45;;;;;;;;;;5042595;28;20044;-89
2023/06/10 01:27:53;;;;;;;9.30;5.03;;;;;;;;;;5018089;28;20120;-90
2023/06/10 01:30:22;;;;;;;9.38;5.70;;;;;;;;;;5041047;28;20047;-90
2023/06/10 01:32:51;;;;;;;9.25;4.78;;;;;;;;;;5035673;28;20138;-90
2023/06/10 01:35:17;;;;;;;6.32;4.65;;;;;;;;;;5056688;28;20043;-89
2023/06/10 01:37:44;;;;;;;12.30;5.60;;;;;;;;;;5054694;28;20040;-89
2023/06/10 01:40:10;;;;;;;8.80;4.70;;;;;;;;;;5025297;28;20499;-90
2023/06/10 01:42:40;;;;;;;9.20;5.05;;;;;;;;;;5040670;28;20047;-90
2023/06/10 01:45:06;;;;;;;7.63;4.75;;;;;;;;;;5045354;28;20036;-89
2023/06/10 01:47:32;;;;;;;10.55;4.97;;;;;;;;;;5059904;28;20032;-89
2023/06/10 01:49:58;;;;;;;6.65;4.82;;;;;;;;;;5042759;28;20069;-90
2023/06/10 01:52:24;;;;;;;6.10;4.90;;;;;;;;;;5068693;28;20123;-90
2023/06/10 01:54:50;;;;;;;8.13;5.22;;;;;;;;;;5016941;28;20052;-89
2023/06/10 01:57:16;;;;;;;7.75;5.20;;;;;;;;;;5029526;28;20573;-90
2023/06/10 01:59:44;;;;;;;10.05;5.60;;;;;;;;;;5040074;28;20092;-90
2023/06/10 02:02:10;;;;;;;10.23;5.87;;;;;;;;;;5063632;28;20482;-89
2023/06/10 02:04:39;;;;;;;7.25;5.10;;;;;;;;;;5060588;28;20095;-89
2023/06/10 02:07:05;;;;;;;7.90;5.40;;;;;;;;;;5062187;28;20044;-89
2023/06/10 02:09:34;;;;;;;6.07;5.13;;;;;;;;;;5020837;28;20131;-89
2023/06/10 02:12:00;;;;;;;8.45;5.32;;;;;;;;;;5038528;28;20043;-90
2023/06/10 02:14:26;;;;;;;7.80;5.05;;;;;;;;;;5023259;28;20052;-89
2023/06/10 02:16:56;;;;;;;7.00;4.93;;;;;;;;;;5039863;28;20071;-89
2023/06/10 02:19:23;;;;;;;7.95;5.18;;;;;;;;;;5027427;28;20071;-89
2023/06/10 02:21:49;;;;;;;9.45;5.13;;;;;;;;;;5040532;28;20043;-89
2023/06/10 02:24:16;;;;;;;7.90;5.60;;;;;;;;;;5043815;28;20035;-89
2023/06/10 02:26:42;;;;;;;9.52;5.78;;;;;;;;;;5062396;28;20089;-89
2023/06/10 02:29:08;;;;;;;8.57;5.00;;;;;;;;;;5029749;28;20035;-89
2023/06/10 02:31:35;;;;;;;9.60;5.43;;;;;;;;;;5025143;28;20047;-90
2023/06/10 02:34:02;;;;;;;9.60;6.10;;;;;;;;;;5026569;28;20036;-90
2023/06/10 02:36:29;;;;;;;7.63;5.70;;;;;;;;;;5032535;28;20098;-89
2023/06/10 02:38:55;;;;;;;8.48;5.25;;;;;;;;;;5046515;28;20430;-89
2023/06/10 02:41:21;;;;;;;7.70;5.72;;;;;;;;;;5025536;28;20086;-89
2023/06/10 02:43:47;;;;;;;8.55;5.45;;;;;;;;;;5046937;28;20430;-89
2023/06/10 02:46:14;;;;;;;9.20;5.45;;;;;;;;;;5048953;28;20037;-89
2023/06/10 02:48:43;;;;;;;8.63;5.50;;;;;;;;;;5053907;28;20497;-89
2023/06/10 02:51:10;;;;;;;6.55;4.75;;;;;;;;;;5049409;28;20043;-90
2023/06/10 02:53:37;;;;;;;7.55;5.25;;;;;;;;;;5030755;28;20032;-89
2023/06/10 02:56:03;;;;;;;7.43;5.47;;;;;;;;;;5024919;28;20041;-89
2023/06/10 02:58:29;;;;;;;7.95;5.75;;;;;;;;;;5049999;28;20051;-89
2023/06/10 03:00:55;;;;;;;9.95;5.50;;;;;;;;;;5043725;28;20048;-89
2023/06/10 03:03:22;;;;;;;8.88;5.85;;;;;;;;;;5047729;28;20107;-89
2023/06/10 03:05:48;;;;;;;8.52;5.45;;;;;;;;;;5038777;28;20040;-89
2023/06/10 03:08:14;;;;;;;7.25;5.40;;;;;;;;;;5032710;28;20051;-90
2023/06/10 03:10:40;;;;;;;7.00;4.97;;;;;;;;;;5018563;28;20156;-90
2023/06/10 03:13:06;;;;;;;8.07;5.40;;;;;;;;;;5061950;28;20055;-89
2023/06/10 03:15:33;;;;;;;9.65;6.22;;;;;;;;;;5050099;28;20539;-90
2023/06/10 03:18:02;;;;;;;10.90;5.60;;;;;;;;;;5031462;28;20043;-90
2023/06/10 03:20:28;;;;;;;9.07;5.50;;;;;;;;;;5023570;28;20047;-90
2023/06/10 03:22:54;;;;;;;9.30;5.20;;;;;;;;;;5034398;28;20479;-90
2023/06/10 03:25:20;;;;;;;9.25;5.35;;;;;;;;;;5033015;28;20046;-90
2023/06/10 03:27:46;;;;;;;8.18;5.40;;;;;;;;;;5064279;28;20078;-90
2023/06/10 03:30:13;;;;;;;8.18;5.80;;;;;;;;;;5045721;28;20095;-89
2023/06/10 03:32:40;;;;;;;7.65;5.72;;;;;;;;;;5019261;28;20032;-90
2023/06/10 03:35:07;;;;;;;7.63;5.90;;;;;;;;;;5044394;28;20036;-90
2023/06/10 03:37:33;;;;;;;12.70;6.18;;;;;;;;;;5077163;28;20501;-89
2023/06/10 03:39:59;;;;;;;10.18;5.97;;;;;;;;;;5058429;28;20064;-89
2023/06/10 03:42:25;;;;;;;12.02;6.00;;;;;;;;;;5049935;28;20040;-89
2023/06/10 03:44:51;;;;;;;10.32;5.68;;;;;;;;;;5022166;28;20064;-89
2023/06/10 03:47:18;;;;;;;7.38;5.45;;;;;;;;;;5032504;28;20055;-89
2023/06/10 03:49:44;;;;;;;10.48;5.93;;;;;;;;;;5031620;28;20039;-90
2023/06/10 03:52:10;;;;;;;9.13;5.55;;;;;;;;;;5055122;28;20036;-90
2023/06/10 03:54:39;;;;;;;7.75;5.70;;;;;;;;;;5021818;28;20189;-89
2023/06/10 03:57:05;;;;;;;8.32;5.65;;;;;;;;;;5061104;28;20044;-90
2023/06/10 03:59:32;;;;;;;8.70;5.00;;;;;;;;;;5061283;28;20035;-90
2023/06/10 04:01:58;;;;;;;10.68;5.95;;;;;;;;;;5044514;28;20482;-90
2023/06/10 04:04:24;;;;;;;7.30;5.55;;;;;;;;;;5028684;28;20051;-90
2023/06/10 04:06:51;;;;;;;7.07;5.63;;;;;;;;;;5040942;28;20040;-90
2023/06/10 04:09:17;;;;;;;8.93;5.15;;;;;;;;;;5045023;28;20050;-90
2023/06/10 04:11:43;;;;;;;9.80;6.15;;;;;;;;;;5040731;28;20113;-90
2023/06/10 04:14:09;;;;;;;9.25;5.72;;;;;;;;;;5025071;28;20036;-90
2023/06/10 04:16:35;;;;;;;8.18;5.80;;;;;;;;;;5032066;28;20032;-90
2023/06/10 04:19:01;;;;;;;10.45;5.78;;;;;;;;;;5056609;28;20048;-89
2023/06/10 04:21:27;;;;;;;7.32;5.57;;;;;;;;;;5044411;28;20461;-89
2023/06/10 04:23:53;;;;;;;11.07;6.20;;;;;;;;;;5046255;28;20490;-89
2023/06/10 04:26:20;;;;;;;8.70;5.65;;;;;;;;;;5028544;28;20048;-90
2023/06/10 04:28:46;;;;;;;9.77;6.32;;;;;;;;;;5036552;28;20501;-89
2023/06/10 04:31:12;;;;;;;10.43;5.88;;;;;;;;;;5043300;28;20032;-90
2023/06/10 04:33:38;;;;;;;10.57;5.78;;;;;;;;;;5059495;28;20028;-89
2023/06/10 04:36:06;;;;;;;8.75;5.45;;;;;;;;;;5044064;28;20391;-90
2023/06/10 04:38:32;;;;;;;12.48;6.30;;;;;;;;;;5025241;28;20176;-90
2023/06/10 04:40:58;;;;;;;11.20;6.28;;;;;;;;;;5033089;28;20505;-90
2023/06/10 04:43:25;;;;;;;9.48;6.00;;;;;;;;;;5045411;28;20048;-90
2023/06/10 04:45:51;;;;;;;9.95;6.13;;;;;;;;;;5060740;28;20044;-89
2023/06/10 04:48:17;;;;;;;13.10;6.07;;;;;;;;;;5020442;28;20117;-90
2023/06/10 04:50:43;;;;;;;14.27;6.75;;;;;;;;;;5025083;28;20081;-90
2023/06/10 04:53:09;;;;;;;9.48;5.70;;;;;;;;;;5043024;28;20028;-90
2023/06/10 04:55:36;;;;;;;13.38;7.10;;;;;;;;;;5025455;28;20436;-90
2023/06/10 04:58:04;;;;;;;14.63;6.70;;;;;;;;;;5028618;28;20036;-90
2023/06/10 05:00:31;;;;;;;12.57;6.93;;;;;;;;;;5044062;28;20115;-90
2023/06/10 05:02:57;;;;;;;11.35;6.78;;;;;;;;;;5026201;28;21448;-90
2023/06/10 05:05:23;;;;;;;8.73;6.32;;;;;;;;;;5060887;28;20127;-90
2023/06/10 05:07:49;;;;;;;10.88;6.43;;;;;;;;;;5026619;28;20043;-90
2023/06/10 05:10:15;;;;;;;11.82;6.07;;;;;;;;;;5031770;28;20040;-90
2023/06/10 05:12:41;;;;;;;10.85;6.13;;;;;;;;;;5043382;28;20044;-90
2023/06/10 05:15:07;;;;;;;11.05;6.45;;;;;;;;;;5050232;28;20047;-82
2023/06/10 05:17:34;;;;;;;11.52;6.35;;;;;;;;;;5066794;28;20036;-83
2023/06/10 05:20:01;;;;;;;13.95;7.13;;;;;;;;;;5031455;28;20064;-83
2023/06/10 05:22:27;;;;;;;13.23;7.15;;;;;;;;;;5053704;28;20054;-83
2023/06/10 05:24:53;;;;;;;12.05;6.90;;;;;;;;;;5046368;28;20387;-83
2023/06/10 05:27:19;;;;;;;9.73;6.72;;;;;;;;;;5052804;28;20044;-83
2023/06/10 05:29:46;;;;;;;13.63;6.20;;;;;;;;;;5047284;28;20096;-84
2023/06/10 05:32:12;;;;;;;11.60;6.95;;;;;;;;;;5018734;28;20712;-83
2023/06/10 05:34:38;;;;;;;9.63;6.78;;;;;;;;;;5046460;28;20130;-83
2023/06/10 05:37:04;;;;;;;13.38;6.63;;;;;;;;;;5016536;28;20043;-83
2023/06/10 05:39:30;;;;;;;12.98;6.82;;;;;;;;;;5029233;28;20048;-83
2023/06/10 05:41:58;;;;;;;9.30;6.40;;;;;;;;;;5061176;28;20392;-83
2023/06/10 05:44:25;;;;;;;7.78;5.93;;;;;;;;;;5024938;28;20592;-83
2023/06/10 05:46:51;;;;;;;13.50;7.35;;;;;;;;;;5038732;28;20040;-84
2023/06/10 05:49:17;;;;;;;12.60;6.85;;;;;;;;;;5063938;28;20075;-83
2023/06/10 05:51:43;;;;;;;9.98;6.40;;;;;;;;;;5040853;28;20039;-83
2023/06/10 05:54:09;;;;;;;10.40;7.03;;;;;;;;;;5033159;28;20393;-83
2023/06/10 05:56:35;;;;;;;10.02;7.00;;;;;;;;;;5038224;28;20435;-85
2023/06/10 05:59:01;;;;;;;10.90;6.47;;;;;;;;;;5043065;28;20557;-84
2023/06/10 06:01:27;;;;;;;13.15;7.03;;;;;;;;;;5029875;28;20081;-84
2023/06/10 06:03:53;;;;;;;11.13;7.53;;;;;;;;;;5028212;28;20052;-84
2023/06/10 06:06:20;;;;;;;13.15;7.28;;;;;;;;;;5033668;28;20386;-83
2023/06/10 06:08:46;;;;;;;9.65;6.70;;;;;;;;;;5023521;28;20050;-83
2023/06/10 06:11:13;;;;;;;10.02;6.60;;;;;;;;;;5044692;28;20067;-83
2023/06/10 06:13:39;;;;;;;11.95;7.07;;;;;;;;;;5040053;28;20044;-83
2023/06/10 06:16:05;;;;;;;12.95;6.65;;;;;;;;;;5010811;28;20036;-83
2023/06/10 06:18:32;;;;;;;9.25;6.43;;;;;;;;;;5018181;28;20050;-83
2023/06/10 06:20:58;;;;;;;9.70;6.25;;;;;;;;;;5047665;28;20130;-83
2023/06/10 06:23:24;;;;;;;9.90;6.30;;;;;;;;;;5043820;28;20044;-84
2023/06/10 06:25:51;;;;;;;11.18;5.93;;;;;;;;;;5039180;28;20044;-84
2023/06/10 06:28:18;;;;;;;8.65;5.85;;;;;;;;;;5036461;28;20035;-89
2023/06/10 06:30:45;;;;;;;10.68;5.88;;;;;;;;;;5034219;28;20457;-90
2023/06/10 06:33:11;;;;;;;12.90;6.60;;;;;;;;;;5021410;28;20847;-90
2023/06/10 06:35:38;;;;;;;9.43;5.88;;;;;;;;;;5023470;28;20524;-90
2023/06/10 06:38:04;;;;;;;10.93;6.18;;;;;;;;;;5027801;28;20036;-89
2023/06/10 06:40:30;;;;;;;9.32;6.22;;;;;;;;;;5038389;28;20152;-91
2023/06/10 06:42:56;;;;;;;13.10;6.43;;;;;;;;;;5053128;28;20098;-89
2023/06/10 06:45:22;;;;;;;9.38;5.90;;;;;;;;;;5022121;28;20396;-90
2023/06/10 06:47:48;;;;;;;11.40;6.15;;;;;;;;;;5038965;28;20032;-90
2023/06/10 06:50:15;;;;;;;10.73;6.13;;;;;;;;;;5018910;28;20046;-89
2023/06/10 06:52:41;;;;;;;9.88;6.38;;;;;;;;;;5042511;28;20116;-89
2023/06/10 06:55:07;;;;;;;10.95;6.03;;;;;;;;;;5050192;28;20040;-90
2023/06/10 06:57:33;;;;;;;9.02;6.32;;;;;;;;;;5056779;28;20046;-84
2023/06/10 06:59:59;;;;;;;11.70;6.85;;;;;;;;;;5053751;28;20047;-89
2023/06/10 07:02:25;;;;;;;11.80;7.00;;;;;;;;;;5017370;28;20040;-90
2023/06/10 07:04:53;;;;;;;13.05;7.40;;;;;;;;;;5022098;28;20135;-90
2023/06/10 07:07:19;;;;;;;9.40;7.40;;;;;;;;;;5021100;28;20093;-90
2023/06/10 07:09:45;;;;;;;10.38;7.10;;;;;;;;;;5017207;28;20040;-90
2023/06/10 07:12:11;;;;;;;9.77;6.63;;;;;;;;;;5031421;28;20104;-90
2023/06/10 07:14:38;;;;;;;9.80;7.15;;;;;;;;;;5056555;28;20039;-91
2023/06/10 07:17:04;;;;;;;9.77;6.95;;;;;;;;;;5048716;28;20398;-90
2023/06/10 07:19:30;;;;;;;9.68;6.35;;;;;;;;;;5051474;28;20051;-91
2023/06/10 07:21:56;;;;;;;9.02;6.65;;;;;;;;;;5038641;28;20065;-90
2023/06/10 07:24:22;;;;;;;8.40;6.38;;;;;;;;;;5024255;28;20412;-91
2023/06/10 07:26:50;;;;;;;10.20;6.32;;;;;;;;;;5052933;28;20043;-89
2023/06/10 07:29:26;;;;;;;12.60;7.10;;;;;;;;;;5030521;28;20082;-91
2023/06/10 07:31:54;;;;;;;8.30;5.93;;;;;;;;;;5032209;28;20193;-91
2023/06/10 07:34:21;;;;;;;8.15;5.97;;;;;;;;;;5030154;28;20406;-91
2023/06/10 07:36:49;;;;;;;8.13;6.07;;;;;;;;;;5029128;28;20073;-91
2023/06/10 07:39:15;;;;;;;9.20;6.93;;;;;;;;;;5031269;28;20080;-91
2023/06/10 07:41:42;;;;;;;10.10;7.45;;;;;;;;;;5015229;28;20505;-91
2023/06/10 07:44:11;;;;;;;10.03;6.50;;;;;;;;;;5026215;28;21910;-91
2023/06/10 07:46:38;;;;;;;10.93;5.85;;;;;;;;;;5029661;28;20081;-90
2023/06/10 07:49:04;;;;;;;8.88;5.95;;;;;;;;;;5002284;28;20039;-91
2023/06/10 07:51:31;;;;;;;8.48;5.40;;;;;;;;;;5015091;28;20493;-88
2023/06/10 07:53:57;;;;;;;8.80;5.40;;;;;;;;;;5012410;28;21382;-89
2023/06/10 07:56:23;;;;;;;8.30;5.68;;;;;;;;;;5036654;28;20044;-88
2023/06/10 07:58:49;;;;;;;7.03;5.43;;;;;;;;;;5034687;28;20141;-89
2023/06/10 08:01:15;;;;;;;9.05;5.45;;;;;;;;;;5023262;28;20042;-88
2023/06/10 08:03:41;;;;;;;8.45;6.30;;;;;;;;;;5034201;28;20128;-83
2023/06/10 08:06:07;;;;;;;7.85;5.18;;;;;;;;;;4973677;28;20444;-83
2023/06/10 08:08:34;;;;;;;7.50;5.22;;;;;;;;;;5020673;28;20467;-83
2023/06/10 08:11:00;;;;;;;8.68;5.55;;;;;;;;;;5030909;28;20064;-83
2023/06/10 08:13:26;;;;;;;7.38;5.00;;;;;;;;;;4937181;28;20034;-83
2023/06/10 08:15:55;;;;;;;7.40;4.93;;;;;;;;;;5026610;28;20131;-81
2023/06/10 08:18:22;;;;;;;8.45;5.15;;;;;;;;;;5034459;28;20427;-83
2023/06/10 08:20:49;;;;;;;6.70;4.80;;;;;;;;;;5016501;28;20049;-83
2023/06/10 08:23:15;;;;;;;6.23;4.93;;;;;;;;;;5017407;28;20477;-88
2023/06/10 08:25:41;;;;;;;7.05;5.13;;;;;;;;;;5015127;28;20077;-88
2023/06/10 08:28:07;;;;;;;6.88;4.80;;;;;;;;;;5020843;28;20042;-88
2023/06/10 08:30:33;;;;;;;7.88;4.70;;;;;;;;;;5019527;28;20042;-88
2023/06/10 08:33:00;;;;;;;7.25;4.88;;;;;;;;;;4996378;28;20064;-89
2023/06/10 08:35:26;;;;;;;9.23;4.72;;;;;;;;;;4984844;28;20038;-88
2023/06/10 08:37:52;;;;;;;7.30;4.55;;;;;;;;;;5033012;28;20054;-88
2023/06/10 08:40:18;;;;;;;8.98;4.63;;;;;;;;;;4999840;28;20070;-88
2023/06/10 08:42:46;;;;;;;8.73;4.78;;;;;;;;;;4936840;28;20232;-89
2023/06/10 08:45:12;;;;;;;;;;;;;;;;;;5011933;28;20059;-89
2023/06/10 08:47:38;;;;;;;7.25;4.22;;;;;;;;;;5014641;28;20033;-89
2023/06/10 08:50:04;;;;;;;7.43;3.83;;;;;;;;;;5013893;28;20039;-88
2023/06/10 08:52:37;;;;;;;5.20;3.90;;;;;;;;;;5045364;28;20046;-89
2023/06/10 08:55:04;;;;;;;5.97;4.30;;;;;;;;;;5036038;28;20046;-90
2023/06/10 08:57:31;;;;;;;6.65;4.60;;;;;;;;;;5045109;28;20270;-88
2023/06/10 08:59:57;;;;;;;6.22;4.00;;;;;;;;;;5025263;28;21251;-89
2023/06/10 09:02:24;;;;;;;7.10;4.60;;;;;;;;;;5031510;28;20125;-89
2023/06/10 09:04:50;;;;;;;10.30;4.63;;;;;;;;;;4995030;28;20125;-88
2023/06/10 09:07:16;;;;;;;6.97;4.28;;;;;;;;;;5029458;28;20041;-89
2023/06/10 09:09:43;;;;;;;6.18;4.35;;;;;;;;;;5031194;28;20107;-88
2023/06/10 09:12:10;;;;;;;6.50;4.13;;;;;;;;;;5041061;28;20133;-88
2023/06/10 09:14:36;;;;;;;7.70;4.10;;;;;;;;;;5048860;28;20030;-89
2023/06/10 09:17:05;;;;;;;7.05;4.30;;;;;;;;;;5038449;28;20823;-88
2023/06/10 09:19:32;;;;;;;5.43;4.47;;;;;;;;;;5049116;28;20038;-89
2023/06/10 09:21:58;;;;;;;5.35;4.45;;;;;;;;;;5012918;28;20842;-89
2023/06/10 09:24:24;;;;;;;6.72;4.30;;;;;;;;;;5033342;28;20049;-89
2023/06/10 09:26:50;;;;;;;11.93;4.63;;;;;;;;;;5032866;28;20476;-89
2023/06/10 09:29:17;;;;;;;6.65;4.40;;;;;;;;;;5035456;28;20134;-88
2023/06/10 09:31:43;;;;;;;5.00;3.63;;;;;;;;;;5014284;28;20039;-89
2023/06/10 09:34:12;;;;;;;6.30;4.00;;;;;;;;;;4998156;28;20589;-89
2023/06/10 09:36:39;;;;;;;5.60;3.80;;;;;;;;;;5025939;28;20122;-88
2023/06/10 09:39:05;;;;;;;6.78;4.40;;;;;;;;;;5015964;28;20042;-88
2023/06/10 09:41:35;;;;;;;6.72;4.05;;;;;;;;;;5002142;28;20083;-88
2023/06/10 09:44:01;;;;;;;4.43;3.58;;;;;;;;;;5012076;28;20046;-89
2023/06/10 09:46:31;;;;;;;6.20;3.92;;;;;;;;;;4991495;28;20685;-87
2023/06/10 09:48:57;;;;;;;7.60;3.55;;;;;;;;;;5007014;28;20818;-88
2023/06/10 09:51:25;;;;;;;5.63;3.50;;;;;;;;;;5005452;28;20045;-89
2023/06/10 09:53:51;;;;;;;6.03;4.18;;;;;;;;;;4993229;28;20134;-89
2023/06/10 09:56:17;;;;;;;4.15;3.60;;;;;;;;;;5036032;28;20121;-89
2023/06/10 09:58:45;;;;;;;5.45;3.47;;;;;;;;;;5028498;28;20045;-88
2023/06/10 10:01:13;;;;;;;5.38;3.70;;;;;;;;;;5034244;28;20046;-89
2023/06/10 10:03:50;;;;;;;4.88;3.60;;;;;;;;;;5026724;28;20062;-90
2023/06/10 10:06:16;;;;;;;6.45;3.65;;;;;;;;;;5043697;28;20046;-89
2023/06/10 10:08:43;;;;;;;4.55;3.05;;;;;;;;;;5035560;28;20042;-89
2023/06/10 10:11:09;;;;;;;4.53;3.35;;;;;;;;;;5013303;28;20038;-89
2023/06/10 10:13:35;;;;;;;6.57;3.50;;;;;;;;;;5038176;28;20042;-89
2023/06/10 10:16:05;;;;;;;7.15;3.08;;;;;;;;;;5021343;28;20049;-88
2023/06/10 10:18:31;;;;;;;6.80;3.50;;;;;;;;;;5034771;28;20046;-89
2023/06/10 10:20:57;;;;;;;5.72;3.00;;;;;;;;;;5005003;28;21411;-89
2023/06/10 10:23:34;;;;;;;5.20;3.00;;;;;;;;;;5004545;28;20041;-88
2023/06/10 10:26:01;;;;;;;4.87;3.30;;;;;;;;;;4995755;28;20546;-89
2023/06/10 10:28:27;;;;;;;5.57;3.43;;;;;;;;;;5012108;28;20042;-89
2023/06/10 10:30:55;;;;;;;4.25;2.83;;;;;;;;;;5002684;28;20034;-88
2023/06/10 10:33:23;;;;;;;4.15;3.38;;;;;;;;;;5022427;28;20043;-89
2023/06/10 10:35:49;;;;;;;4.68;3.10;;;;;;;;;;5021850;28;20091;-88
2023/06/10 10:38:15;;;;;;;3.70;3.15;;;;;;;;;;5022527;28;20045;-88
2023/06/10 10:40:41;;;;;;;3.83;3.10;;;;;;;;;;5048862;28;20390;-88
2023/06/10 10:43:08;;;;;;;5.28;3.20;;;;;;;;;;5010706;28;20042;-89
2023/06/10 10:45:34;;;;;;;4.03;3.22;;;;;;;;;;5009126;28;20038;-89
2023/06/10 10:48:02;;;;;;;4.07;3.22;;;;;;;;;;5036288;28;20100;-89
2023/06/10 10:50:30;;;;;;;4.80;3.15;;;;;;;;;;5028540;28;20469;-89
2023/06/10 10:52:57;;;;;;;7.82;3.20;;;;;;;;;;5034017;28;20059;-88
2023/06/10 10:55:23;;;;;;;5.82;3.13;;;;;;;;;;5024296;28;20074;-89
2023/06/10 10:57:56;;;;;;;4.60;3.38;;;;;;;;;;5001513;28;20100;-89
2023/06/10 11:00:49;;;;;;;4.70;3.20;;;;;;;;;;5041162;28;20034;-89
2023/06/10 11:03:18;;;;;;;3.97;3.28;;;;;;;;;;4990423;28;20087;-89
2023/06/10 11:05:49;;;;;;;4.18;3.03;;;;;;;;;;5009144;28;20038;-90
2023/06/10 11:08:38;;;;;;;4.63;2.97;;;;;;;;;;5037376;28;20057;-89
2023/06/10 11:11:26;;;;;;;4.70;2.75;;;;;;;;;;5022428;28;20054;-89
2023/06/10 11:14:01;;;;;;;5.38;3.10;;;;;;;;;;5013479;28;20038;-88
2023/06/10 11:16:28;;;;;;;3.67;2.60;;;;;;;;;;4976908;28;20487;-88
2023/06/10 11:18:54;;;;;;;5.82;3.20;;;;;;;;;;5030637;28;20465;-88
2023/06/10 11:21:20;;;;;;;6.03;3.20;;;;;;;;;;4978495;28;20049;-88
2023/06/10 11:23:47;;;;;;;4.32;2.88;;;;;;;;;;5015319;28;20070;-88
2023/06/10 11:26:22;;;;;;;3.85;2.85;;;;;;;;;;5019745;28;20046;-88
2023/06/10 11:28:48;;;;;;;6.88;3.10;;;;;;;;;;5028872;28;20482;-88
2023/06/10 11:31:20;;;;;;;3.70;2.58;;;;;;;;;;4967453;28;20412;-88
2023/06/10 11:33:47;;;;;;;4.28;2.60;;;;;;;;;;5013215;28;20690;-89
2023/06/10 11:36:14;;;;;;;4.93;2.80;;;;;;;;;;5012144;28;20113;-88
2023/06/10 11:38:41;;;;;;;5.50;3.05;;;;;;;;;;5018511;28;20130;-88
2023/06/10 11:41:07;;;;;;;3.15;2.67;;;;;;;;;;5032391;28;20255;-88
2023/06/10 11:43:33;;;;;;;3.42;2.47;;;;;;;;;;4967553;28;20516;-89
2023/06/10 11:46:00;;;;;;;3.33;2.63;;;;;;;;;;5018671;28;20120;-88
2023/06/10 11:48:30;;;;;;;4.95;2.70;;;;;;;;;;4983779;28;20393;-88
2023/06/10 11:50:56;;;;;;;3.45;2.40;;;;;;;;;;4962143;28;20039;-89
2023/06/10 11:53:23;;;;;;;3.15;2.60;;;;;;;;;;4966920;28;20149;-89
2023/06/10 11:55:50;;;;;;;4.70;2.60;;;;;;;;;;5017425;28;20096;-88
2023/06/10 11:58:21;;;;;;;3.95;2.58;;;;;;;;;;5032470;28;20066;-88
2023/06/10 12:01:01;;;;;;;3.13;2.40;;;;;;;;;;5020552;28;20385;-89
2023/06/10 12:03:27;;;;;;;2.47;2.28;;;;;;;;;;5019347;28;20076;-89
2023/06/10 12:06:00;;;;;;;3.35;2.72;;;;;;;;;;4996693;28;20278;-87
2023/06/10 12:08:27;;;;;;;4.88;2.40;;;;;;;;;;5028741;28;20373;-88
2023/06/10 12:10:53;;;;;;;4.68;2.45;;;;;;;;;;5009556;28;20031;-88
2023/06/10 12:13:19;;;;;;;6.30;2.70;;;;;;;;;;5008455;28;20489;-88
2023/06/10 12:15:45;;;;;;;3.63;2.28;;;;;;;;;;5020728;28;20034;-88
2023/06/10 12:18:18;;;;;;;2.65;2.17;;;;;;;;;;5004664;28;20042;-88
2023/06/10 12:20:44;;;;;;;6.63;3.60;;;;;;;;;;5051586;28;20055;-88
2023/06/10 12:23:11;;;;;;;4.60;2.65;;;;;;;;;;5002461;28;20042;-88
2023/06/10 12:25:38;;;;;;;4.00;2.38;;;;;;;;;;4972499;28;20030;-88
2023/06/10 12:28:04;;;;;;;2.80;2.00;;;;;;;;;;5017631;28;20051;-88
2023/06/10 12:30:30;;;;;;;6.60;2.60;;;;;;;;;;5040472;28;20049;-89
2023/06/10 12:32:56;;;;;;;4.55;2.47;;;;;;;;;;4994856;28;20378;-88
2023/06/10 12:35:26;;;;;;;4.30;2.65;;;;;;;;;;5003861;28;20076;-88
2023/06/10 12:37:56;;;;;;;7.15;2.55;;;;;;;;;;5017293;28;20044;-88
2023/06/10 12:40:29;;;;;;;6.15;2.70;;;;;;;;;;5018665;28;20472;-88
2023/06/10 12:42:58;;;;;;;4.38;2.40;;;;;;;;;;5029521;28;20075;-88
2023/06/10 12:45:30;;;;;;;3.92;2.50;;;;;;;;;;5005365;28;20484;-89
2023/06/10 12:48:10;;;;;;;4.13;2.65;;;;;;;;;;5016060;28;20052;-88
2023/06/10 12:50:39;;;;;;;4.40;2.13;;;;;;;;;;4999393;28;20508;-88
2023/06/10 12:53:05;;;;;;;2.85;2.15;;;;;;;;;;4949021;28;20046;-88
2023/06/10 12:55:33;;;;;;;3.75;1.95;;;;;;;;;;5047458;28;20046;-88
2023/06/10 12:58:00;;;;;;;2.42;2.20;;;;;;;;;;5029239;28;20077;-88
2023/06/10 13:00:28;;;;;;;3.03;2.22;;;;;;;;;;5030280;28;20049;-88
2023/06/10 13:02:54;;;;;;;3.88;2.60;;;;;;;;;;4989000;28;20038;-88
2023/06/10 13:05:20;;;;;;;3.97;2.75;;;;;;;;;;5030463;28;20042;-87
2023/06/10 13:07:46;;;;;;;4.15;2.30;;;;;;;;;;5033604;28;20125;-88
2023/06/10 13:10:16;;;;;;;2.93;2.20;;;;;;;;;;5035835;28;22931;-88
2023/06/10 13:12:42;;;;;;;4.13;2.90;;;;;;;;;;5031270;28;20042;-89
2023/06/10 13:15:09;;;;;;;3.20;2.33;;;;;;;;;;5038356;28;20034;-89
2023/06/10 13:17:35;;;;;;;5.45;2.50;;;;;;;;;;4971509;28;20111;-88
2023/06/10 13:20:04;;;;;;;3.85;2.40;;;;;;;;;;5028610;28;20122;-89
2023/06/10 13:22:32;;;;;;;4.93;2.53;;;;;;;;;;5017019;28;20078;-88
2023/06/10 13:24:59;;;;;;;4.70;2.20;;;;;;;;;;5026897;28;20054;-89
2023/06/10 13:27:25;;;;;;;3.95;2.30;;;;;;;;;;5016720;28;20440;-88
2023/06/10 13:29:51;;;;;;;4.45;2.40;;;;;;;;;;5017257;28;20047;-89
2023/06/10 13:32:17;;;;;;;2.97;2.03;;;;;;;;;;5004599;28;20038;-88
2023/06/10 13:34:43;;;;;;;3.03;2.47;;;;;;;;;;5000826;28;20041;-88
2023/06/10 13:37:09;;;;;;;5.18;2.75;;;;;;;;;;5037873;28;20041;-89
2023/06/10 13:39:35;;;;;;;4.22;2.30;;;;;;;;;;4991352;28;20407;-88
2023/06/10 13:42:02;;;;;;;4.13;2.47;;;;;;;;;;5070814;28;20052;-89
2023/06/10 13:44:30;;;;;;;3.65;2.50;;;;;;;;;;5043532;28;20047;-88
2023/06/10 13:46:56;;;;;;;3.60;2.55;;;;;;;;;;5045401;28;20486;-88
2023/06/10 13:49:23;;;;;;;4.15;2.28;;;;;;;;;;5052952;28;20032;-88
2023/06/10 13:51:49;;;;;;;5.43;2.33;;;;;;;;;;5052548;28;20059;-89
2023/06/10 13:54:15;;;;;;;5.55;2.10;;;;;;;;;;5046315;28;20462;-89
2023/06/10 13:56:41;;;;;;;5.30;2.40;;;;;;;;;;5048613;28;20076;-88
2023/06/10 13:59:08;;;;;;;4.72;2.13;;;;;;;;;;5053514;28;20483;-89
2023/06/10 14:01:34;;;;;;;7.95;2.58;;;;;;;;;;5040682;28;20064;-88
2023/06/10 14:04:00;;;;;;;3.40;2.30;;;;;;;;;;5067006;28;20687;-89
2023/06/10 14:06:27;;;;;;;3.38;1.98;;;;;;;;;;5041614;28;20520;-90
2023/06/10 14:08:54;;;;;;;3.47;2.08;;;;;;;;;;5041892;28;20036;-88
2023/06/10 14:11:20;;;;;;;3.53;2.28;;;;;;;;;;5024384;28;20067;-88
2023/06/10 14:13:48;;;;;;;3.40;2.38;;;;;;;;;;5049802;28;20068;-89
2023/06/10 14:16:14;;;;;;;2.90;2.10;;;;;;;;;;5081108;28;20040;-88
2023/06/10 14:18:40;;;;;;;2.22;2.00;;;;;;;;;;5068098;28;20079;-88
2023/06/10 14:21:06;;;;;;;2.70;2.28;;;;;;;;;;5061274;28;20112;-88
2023/06/10 14:23:32;;;;;;;2.45;1.90;;;;;;;;;;5043960;28;20036;-88
2023/06/10 14:25:58;;;;;;;3.97;2.15;;;;;;;;;;5052322;28;20047;-88
2023/06/10 14:28:26;;;;;;;2.78;2.10;;;;;;;;;;5049661;28;20055;-87
2023/06/10 14:30:53;;;;;;;2.65;1.50;;;;;;;;;;5032402;28;20079;-88
2023/06/10 14:33:20;;;;;;;4.60;4.18;;;;;;;;;;5075618;28;20126;-88
2023/06/10 14:35:46;;;;;;;3.42;3.13;;;;;;;;;;5037565;28;20040;-88
2023/06/10 14:38:14;;;;;;;3.45;3.13;;;;;;;;;;5039727;28;20040;-88
2023/06/10 14:40:40;;;;;;;;;;;;;;;;;;5033488;28;20054;-89